Time;durP1;ratioP1;P1;durP2;ratioP2;P2;SDS_P1;SDS_P2;PMS_P1;PMS_P2;Temp;Humidity;BMP_temperature;BMP_pressure;BME280_temperature;BME280_humidity;BME280_pressure;Samples;Min_cycle;Max_cycle;Signal;HPM_P1;HPM_P2
2022/10/03 00:01:58;;;;;;;12.25;2.38;;;9.90;99.90;;;;;;4974572;28;20078;-48
2022/10/03 00:04:48;;;;;;;6.93;1.33;;;9.90;99.90;;;;;;4955505;28;20054;-47
2022/10/03 00:07:38;;;;;;;10.95;2.25;;;9.80;99.90;;;;;;4967757;28;20030;-47
2022/10/03 00:10:31;;;;;;;2.95;1.10;;;9.80;99.90;;;;;;4977114;28;20050;-51
2022/10/03 00:13:20;;;;;;;6.78;1.83;;;9.80;99.90;;;;;;4975593;28;20363;-51
2022/10/03 00:16:00;;;;;;;3.03;1.00;;;9.80;99.90;;;;;;4979446;28;20034;-48
2022/10/03 00:18:51;;;;;;;5.20;1.60;;;9.80;99.90;;;;;;4968814;28;20030;-52
2022/10/03 00:21:31;;;;;;;4.00;1.10;;;9.80;99.90;;;;;;4969256;28;20512;-53
2022/10/03 00:24:08;;;;;;;3.78;1.30;;;9.80;99.90;;;;;;4969328;28;20023;-49
2022/10/03 00:26:33;;;;;;;8.15;1.50;;;9.80;99.90;;;;;;4973583;28;20110;-47
2022/10/03 00:29:17;;;;;;;7.85;2.30;;;9.80;99.90;;;;;;4969948;28;20090;-48
2022/10/03 00:32:13;;;;;;;10.80;2.08;;;9.90;99.90;;;;;;4972219;28;20023;-47
2022/10/03 00:34:52;;;;;;;12.05;2.92;;;9.90;99.90;;;;;;4968887;28;20045;-47
2022/10/03 00:37:34;;;;;;;5.18;1.85;;;9.90;99.90;;;;;;4973089;28;20050;-51
2022/10/03 00:40:23;;;;;;;9.75;2.00;;;10.00;99.90;;;;;;4967356;28;20503;-47
2022/10/03 00:42:59;;;;;;;10.38;1.63;;;10.00;99.90;;;;;;4972953;28;20026;-49
2022/10/03 00:45:43;;;;;;;8.63;2.15;;;10.00;99.90;;;;;;4966407;28;20046;-46
2022/10/03 00:48:27;;;;;;;8.55;1.98;;;10.00;99.90;;;;;;4972643;28;20169;-52
2022/10/03 00:51:24;;;;;;;7.05;1.88;;;10.00;99.90;;;;;;4969449;28;20386;-47
2022/10/03 00:54:04;;;;;;;6.65;1.23;;;10.00;99.90;;;;;;4951533;28;20049;-47
2022/10/03 00:56:38;;;;;;;14.32;1.80;;;10.00;99.90;;;;;;4968057;28;20037;-47
2022/10/03 00:59:20;;;;;;;5.22;1.27;;;10.00;99.90;;;;;;4962891;28;20326;-47
2022/10/03 01:01:47;;;;;;;8.18;1.70;;;10.00;99.90;;;;;;4970568;28;20505;-46
2022/10/03 01:04:37;;;;;;;6.45;1.50;;;10.00;99.90;;;;;;4966776;28;20055;-47
2022/10/03 01:07:13;;;;;;;6.45;1.67;;;10.00;99.90;;;;;;4970412;28;20428;-47
2022/10/03 01:10:09;;;;;;;4.70;1.27;;;10.00;99.90;;;;;;4970123;28;20031;-48
2022/10/03 01:12:46;;;;;;;10.43;2.60;;;10.00;99.90;;;;;;4967658;28;20154;-47
2022/10/03 01:15:30;;;;;;;12.13;2.53;;;10.00;99.90;;;;;;4969790;28;20121;-48
2022/10/03 01:18:32;;;;;;;9.05;1.98;;;10.00;99.90;;;;;;4972658;28;20427;-47
2022/10/03 01:21:27;;;;;;;9.65;2.08;;;10.00;99.90;;;;;;4967891;28;20065;-48
2022/10/03 01:24:12;;;;;;;7.05;1.73;;;10.00;99.90;;;;;;4972020;28;20121;-48
2022/10/03 01:26:48;;;;;;;6.22;1.65;;;10.00;99.90;;;;;;4969560;28;20421;-47
2022/10/03 01:32:29;;;;;;;9.05;1.55;;;10.00;99.90;;;;;;4965331;28;20123;-47
2022/10/03 01:35:02;;;;;;;7.57;1.65;;;10.00;99.90;;;;;;4971072;28;20034;-46
2022/10/03 01:37:36;;;;;;;6.80;1.60;;;10.00;99.90;;;;;;4966773;28;20544;-47
2022/10/03 01:40:11;;;;;;;6.55;1.70;;;10.00;99.90;;;;;;4969981;28;20062;-46
2022/10/03 01:43:01;;;;;;;8.70;2.25;;;9.90;99.90;;;;;;4966849;28;20101;-47
2022/10/03 01:48:09;;;;;;;6.60;1.33;;;9.90;99.90;;;;;;5025900;28;20045;-50
2022/10/03 01:50:47;;;;;;;5.53;2.10;;;9.90;99.90;;;;;;5028133;28;20021;-47
2022/10/03 01:53:29;;;;;;;9.70;1.40;;;9.90;99.90;;;;;;5009261;28;20213;-47
2022/10/03 01:56:05;;;;;;;6.70;1.83;;;9.80;99.90;;;;;;5025035;28;20114;-50
2022/10/03 01:59:12;;;;;;;6.13;2.15;;;9.80;99.90;;;;;;5024916;28;20029;-47
2022/10/03 02:02:06;;;;;;;7.43;1.40;;;9.80;99.90;;;;;;4946681;28;20506;-48
2022/10/03 02:04:57;;;;;;;9.43;2.08;;;9.80;99.90;;;;;;5018221;28;20048;-49
2022/10/03 02:07:46;;;;;;;10.02;2.15;;;9.80;99.90;;;;;;5023512;28;20017;-47
2022/10/03 02:10:39;;;;;;;6.00;1.67;;;9.80;99.90;;;;;;5027127;28;20024;-48
2022/10/03 02:13:23;;;;;;;6.60;1.40;;;9.80;99.90;;;;;;5025194;28;20034;-48
2022/10/03 02:16:13;;;;;;;11.07;1.83;;;9.70;99.90;;;;;;5024464;28;20224;-52
2022/10/03 02:18:47;;;;;;;6.15;1.83;;;9.70;99.90;;;;;;5026969;28;20030;-49
2022/10/03 02:21:21;;;;;;;8.32;1.65;;;9.70;99.90;;;;;;5028921;28;20067;-48
2022/10/03 02:23:48;;;;;;;6.57;1.38;;;9.60;99.90;;;;;;5026185;28;20029;-48
2022/10/03 02:26:56;;;;;;;6.88;1.73;;;9.60;99.90;;;;;;5028275;28;20079;-47
2022/10/03 02:29:57;;;;;;;6.53;1.48;;;9.60;99.90;;;;;;5026221;28;20026;-48
2022/10/03 02:32:50;;;;;;;3.00;1.20;;;9.60;99.90;;;;;;5016315;28;20096;-49
2022/10/03 02:35:44;;;;;;;8.50;1.65;;;9.60;99.90;;;;;;5028417;28;20565;-48
2022/10/03 02:38:38;;;;;;;6.88;1.30;;;9.50;99.90;;;;;;5022935;28;20072;-48
2022/10/03 02:41:21;;;;;;;4.47;1.40;;;9.50;99.90;;;;;;5027576;28;20032;-49
2022/10/03 02:44:08;;;;;;;4.35;1.33;;;9.50;99.90;;;;;;5026103;28;20025;-47
2022/10/03 02:47:04;;;;;;;4.03;1.48;;;9.50;99.90;;;;;;5018032;28;20061;-50
2022/10/03 02:49:48;;;;;;;3.00;1.47;;;9.50;99.90;;;;;;5018206;28;20480;-49
2022/10/03 02:53:08;;;;;;;7.53;1.10;;;9.50;99.90;;;;;;5027487;28;20260;-51
2022/10/03 02:55:43;;;;;;;9.60;1.77;;;9.40;99.90;;;;;;4999776;28;20095;-47
2022/10/03 02:58:37;;;;;;;6.65;1.70;;;9.40;99.90;;;;;;5027042;28;20053;-48
2022/10/03 03:01:42;;;;;;;6.55;1.33;;;9.40;99.90;;;;;;5023624;28;20357;-49
2022/10/03 03:04:22;;;;;;;3.40;1.02;;;9.40;99.90;;;;;;5028937;28;20091;-47
2022/10/03 03:07:25;;;;;;;3.03;1.20;;;9.30;99.90;;;;;;5024978;28;20079;-48
2022/10/03 03:10:09;;;;;;;5.55;1.38;;;9.30;99.90;;;;;;5029210;28;20029;-47
2022/10/03 03:12:59;;;;;;;5.95;1.13;;;9.30;99.90;;;;;;5024766;28;20492;-47
2022/10/03 03:15:37;;;;;;;5.38;0.90;;;9.30;99.90;;;;;;5011560;28;20083;-52
2022/10/03 03:18:26;;;;;;;6.03;1.45;;;9.30;99.90;;;;;;5023198;28;20033;-48
2022/10/03 03:20:59;;;;;;;5.85;1.50;;;9.20;99.90;;;;;;5028515;28;20060;-49
2022/10/03 03:23:46;;;;;;;2.80;0.65;;;9.20;99.90;;;;;;5025740;28;20018;-48
2022/10/03 03:26:53;;;;;;;6.65;1.25;;;9.20;99.90;;;;;;5027810;28;20028;-52
2022/10/03 03:29:25;;;;;;;3.97;1.00;;;9.20;99.90;;;;;;5025631;28;20018;-47
2022/10/03 03:32:02;;;;;;;4.30;1.13;;;9.20;99.90;;;;;;5024250;28;20109;-48
2022/10/03 03:34:59;;;;;;;4.50;1.13;;;9.10;99.90;;;;;;5027775;28;20064;-50
2022/10/03 03:38:02;;;;;;;4.72;1.20;;;9.10;99.90;;;;;;5015808;28;20037;-49
2022/10/03 03:40:52;;;;;;;6.07;1.40;;;9.10;99.90;;;;;;5028807;28;20442;-50
2022/10/03 03:43:58;;;;;;;2.97;0.90;;;9.10;99.90;;;;;;5016550;28;20033;-49
2022/10/03 03:46:42;;;;;;;4.20;1.10;;;9.00;99.90;;;;;;5017442;28;20029;-51
2022/10/03 03:49:45;;;;;;;4.18;0.90;;;9.00;99.90;;;;;;5027885;28;20416;-49
2022/10/03 03:52:55;;;;;;;4.75;1.25;;;8.90;99.90;;;;;;5025611;28;20072;-50
2022/10/03 03:55:47;;;;;;;4.70;1.02;;;8.90;99.90;;;;;;5009174;28;20511;-47
2022/10/03 03:58:35;;;;;;;6.20;1.40;;;8.80;99.90;;;;;;5030275;28;20010;-51
2022/10/03 04:01:28;;;;;;;4.68;1.40;;;8.80;99.90;;;;;;4993146;28;20049;-53
2022/10/03 04:04:13;;;;;;;5.95;1.10;;;8.80;99.90;;;;;;5032168;28;20132;-50
2022/10/03 04:06:53;;;;;;;8.30;1.10;;;8.80;99.90;;;;;;5028827;28;20123;-51
2022/10/03 04:09:52;;;;;;;7.13;1.30;;;8.80;99.90;;;;;;5031282;28;20057;-49
2022/10/03 04:12:36;;;;;;;5.75;1.83;;;8.80;99.90;;;;;;5026120;28;20088;-50
2022/10/03 04:15:29;;;;;;;5.38;1.23;;;8.70;99.90;;;;;;5031024;28;20063;-54
2022/10/03 04:21:49;;;;;;;6.22;1.50;;;8.70;99.90;;;;;;5031462;28;20028;-50
2022/10/03 04:24:28;;;;;;;5.35;1.42;;;8.70;99.90;;;;;;5023548;28;20018;-49
2022/10/03 04:27:12;;;;;;;4.88;1.05;;;8.70;99.90;;;;;;5031697;28;20504;-51
2022/10/03 04:30:10;;;;;;;5.95;1.23;;;8.70;99.90;;;;;;5030164;28;20037;-49
2022/10/03 04:33:14;;;;;;;2.97;0.90;;;8.60;99.90;;;;;;5018501;28;20033;-51
2022/10/03 04:35:45;;;;;;;6.68;1.10;;;8.60;99.90;;;;;;5022674;28;20041;-48
2022/10/03 04:38:20;;;;;;;6.35;1.55;;;8.60;99.90;;;;;;5025455;28;20065;-50
2022/10/03 04:40:57;;;;;;;7.85;1.27;;;8.60;99.90;;;;;;5032483;28;20026;-49
2022/10/03 04:43:37;;;;;;;3.75;1.08;;;8.50;99.90;;;;;;5020427;28;20049;-50
2022/10/03 04:46:32;;;;;;;5.38;1.25;;;8.50;99.90;;;;;;5031523;28;20068;-52
2022/10/03 04:49:15;;;;;;;5.28;1.52;;;8.50;99.90;;;;;;5028663;28;20101;-49
2022/10/03 04:51:56;;;;;;;6.32;1.63;;;8.50;99.90;;;;;;5030721;28;20095;-49
2022/10/03 04:54:47;;;;;;;7.25;1.20;;;8.50;99.90;;;;;;5018216;28;20100;-51
2022/10/03 04:57:50;;;;;;;2.80;1.20;;;8.50;99.90;;;;;;5029065;28;20500;-49
2022/10/03 05:00:28;;;;;;;3.25;1.25;;;8.40;99.90;;;;;;5018438;28;20030;-51
2022/10/03 05:02:57;;;;;;;8.68;1.38;;;8.40;99.90;;;;;;5013318;28;20048;-49
2022/10/03 05:05:38;;;;;;;5.95;1.38;;;8.40;99.90;;;;;;5028097;28;20079;-49
2022/10/03 05:08:16;;;;;;;3.83;0.70;;;8.40;99.90;;;;;;5012292;28;20032;-53
2022/10/03 05:11:09;;;;;;;2.90;1.33;;;8.40;99.90;;;;;;5027163;28;20045;-51
2022/10/03 05:14:01;;;;;;;4.22;0.88;;;8.30;99.90;;;;;;5020159;28;20324;-49
2022/10/03 05:16:50;;;;;;;9.32;1.52;;;8.30;99.90;;;;;;5024469;28;20021;-49
2022/10/03 05:19:42;;;;;;;4.75;0.95;;;8.30;99.90;;;;;;5025926;28;20120;-50
2022/10/03 05:22:36;;;;;;;4.65;1.13;;;8.30;99.90;;;;;;5028677;28;20033;-49
2022/10/03 05:25:28;;;;;;;2.45;0.88;;;8.30;99.90;;;;;;5026948;28;20467;-49
2022/10/03 05:28:08;;;;;;;6.53;1.00;;;8.30;99.90;;;;;;5026622;28;20048;-49
2022/10/03 05:31:01;;;;;;;4.18;1.27;;;8.20;99.90;;;;;;5031192;28;20060;-52
2022/10/03 05:33:39;;;;;;;8.77;1.70;;;8.20;99.90;;;;;;5027546;28;20034;-53
2022/10/03 05:36:18;;;;;;;7.75;1.45;;;8.20;99.90;;;;;;5028867;28;20091;-49
2022/10/03 05:38:49;;;;;;;6.05;1.95;;;8.20;99.90;;;;;;5010880;28;20120;-49
2022/10/03 05:41:27;;;;;;;3.42;1.38;;;8.20;99.90;;;;;;5012216;28;20080;-49
2022/10/03 05:44:08;;;;;;;6.63;1.38;;;8.20;99.90;;;;;;5022793;28;20446;-48
2022/10/03 05:46:42;;;;;;;4.53;1.67;;;8.20;99.90;;;;;;5030533;28;20103;-50
2022/10/03 05:49:46;;;;;;;5.00;1.42;;;8.20;99.90;;;;;;5025781;28;20036;-50
2022/10/03 05:52:35;;;;;;;5.57;0.93;;;8.20;99.90;;;;;;5029367;28;20032;-48
2022/10/03 05:55:06;;;;;;;8.45;1.58;;;8.30;99.90;;;;;;5022373;28;20271;-49
2022/10/03 05:57:57;;;;;;;7.28;2.03;;;8.30;99.90;;;;;;5019464;28;20094;-48
2022/10/03 06:00:34;;;;;;;11.00;2.20;;;8.30;99.90;;;;;;5023420;28;20029;-49
2022/10/03 06:03:20;;;;;;;5.78;1.88;;;8.30;99.90;;;;;;5030224;28;20033;-49
2022/10/03 06:06:06;;;;;;;5.50;1.45;;;8.40;99.90;;;;;;5027220;28;20376;-49
2022/10/03 06:09:01;;;;;;;7.03;1.50;;;8.50;99.90;;;;;;5018207;28;20044;-49
2022/10/03 06:11:46;;;;;;;7.63;1.67;;;8.50;99.90;;;;;;5017805;28;20449;-52
2022/10/03 06:14:31;;;;;;;6.60;2.13;;;8.60;99.90;;;;;;5028581;28;20013;-49
2022/10/03 06:17:20;;;;;;;8.98;1.38;;;8.60;99.90;;;;;;5023575;28;20621;-49
2022/10/03 06:20:00;;;;;;;8.95;1.90;;;8.70;99.90;;;;;;5022336;28;20388;-49
2022/10/03 06:22:50;;;;;;;9.52;2.30;;;8.80;99.90;;;;;;5017107;28;20357;-50
2022/10/03 06:25:15;;;;;;;9.15;2.20;;;8.90;99.90;;;;;;5014382;28;20028;-50
2022/10/03 06:27:44;;;;;;;6.07;1.92;;;8.90;99.90;;;;;;5025489;28;20431;-48
2022/10/03 06:30:37;;;;;;;8.93;2.00;;;9.00;99.90;;;;;;5030030;28;20057;-49
2022/10/03 06:33:21;;;;;;;6.85;1.80;;;9.10;99.90;;;;;;5025087;28;20108;-49
2022/10/03 06:36:14;;;;;;;10.35;2.08;;;9.10;99.90;;;;;;5030255;28;20557;-52
2022/10/03 06:38:58;;;;;;;10.00;2.38;;;9.20;99.90;;;;;;5026309;28;20209;-49
2022/10/03 06:41:48;;;;;;;13.20;2.53;;;9.30;99.90;;;;;;5012431;28;20268;-52
2022/10/03 06:44:26;;;;;;;13.02;1.98;;;9.40;99.90;;;;;;5013863;28;20095;-52
2022/10/03 06:47:50;;;;;;;15.98;3.50;;;9.50;99.90;;;;;;5029114;28;20425;-50
2022/10/03 06:50:34;;;;;;;13.07;2.65;;;9.60;99.90;;;;;;4968310;28;20519;-48
2022/10/03 06:53:14;;;;;;;9.88;2.22;;;9.70;99.90;;;;;;4968354;28;20577;-49
2022/10/03 06:55:54;;;;;;;12.55;2.25;;;9.80;99.90;;;;;;5008134;28;20414;-48
2022/10/03 06:58:49;;;;;;;16.48;3.20;;;9.90;99.90;;;;;;5011905;28;20033;-49
2022/10/03 07:01:20;;;;;;;18.00;3.28;;;10.00;99.90;;;;;;5013815;28;20065;-48
2022/10/03 07:04:06;;;;;;;13.77;2.47;;;10.10;99.90;;;;;;5029046;28;20514;-49
2022/10/03 07:06:51;;;;;;;;;;;10.10;99.90;;;;;;5018394;28;20033;-48
2022/10/03 07:10:00;;;;;;;13.43;2.92;;;10.10;99.90;;;;;;5027642;28;19912;-49
2022/10/03 07:12:43;;;;;;;21.33;3.90;;;10.20;99.90;;;;;;5016850;28;20053;-48
2022/10/03 07:15:18;;;;;;;12.50;2.83;;;10.20;99.90;;;;;;5026635;28;20022;-49
2022/10/03 07:17:56;;;;;;;11.13;2.47;;;10.30;99.90;;;;;;5024885;28;20053;-49
2022/10/03 07:20:46;;;;;;;15.40;3.08;;;10.40;99.90;;;;;;5015422;28;20064;-49
2022/10/03 07:23:52;;;;;;;8.27;2.17;;;10.50;99.90;;;;;;5024755;28;20514;-49
2022/10/03 07:26:38;;;;;;;7.85;2.35;;;10.50;99.90;;;;;;5027439;28;20392;-48
2022/10/03 07:29:22;;;;;;;10.38;1.95;;;10.50;99.90;;;;;;5024869;28;20014;-50
2022/10/03 07:32:15;;;;;;;8.00;2.30;;;10.50;99.90;;;;;;5024749;28;20053;-51
2022/10/03 07:34:58;;;;;;;15.65;3.08;;;10.60;99.90;;;;;;5019351;28;20025;-50
2022/10/03 07:40:54;;;;;;;13.50;3.35;;;10.70;99.90;;;;;;5028437;28;20036;-51
2022/10/03 07:43:50;;;;;;;8.55;1.80;;;10.80;99.90;;;;;;4997568;28;20053;-50
2022/10/03 07:46:21;;;;;;;10.15;2.67;;;11.00;99.90;;;;;;5013226;28;20057;-49
2022/10/03 07:48:49;;;;;;;14.02;2.65;;;11.10;99.90;;;;;;5063909;22;20045;-46
2022/10/03 07:51:48;;;;;;;8.68;1.90;;;11.10;99.90;;;;;;5032613;28;20291;-46
2022/10/03 07:54:27;;;;;;;10.70;2.03;;;11.20;99.90;;;;;;5044512;28;20110;-46
2022/10/03 07:56:57;;;;;;;9.98;3.10;;;11.40;99.90;;;;;;5046585;28;20032;-46
2022/10/03 07:59:41;;;;;;;11.02;2.67;;;11.60;99.90;;;;;;5025563;28;20427;-46
2022/10/03 08:02:25;;;;;;;7.90;2.42;;;11.70;99.90;;;;;;5044835;28;20017;-47
2022/10/03 08:05:26;;;;;;;12.52;2.38;;;11.80;99.90;;;;;;5048527;28;20383;-49
2022/10/03 08:08:12;;;;;;;14.02;2.33;;;12.00;99.90;;;;;;5035180;28;20071;-47
2022/10/03 08:10:58;;;;;;;7.78;1.88;;;12.10;99.90;;;;;;5044366;28;20040;-47
2022/10/03 08:14:07;;;;;;;16.35;2.67;;;12.20;99.90;;;;;;5034742;28;20114;-48
2022/10/03 08:17:09;;;;;;;12.80;2.55;;;12.40;99.90;;;;;;5037370;28;20044;-47
2022/10/03 08:20:12;;;;;;;8.07;1.52;;;12.60;99.90;;;;;;5047485;28;20052;-52
2022/10/03 08:23:15;;;;;;;4.10;1.63;;;12.80;99.90;;;;;;5038182;28;20563;-50
2022/10/03 08:25:56;;;;;;;8.05;2.00;;;12.90;99.90;;;;;;4996974;28;20041;-53
2022/10/03 08:28:30;;;;;;;11.68;2.20;;;12.90;99.90;;;;;;5030193;28;20089;-50
2022/10/03 08:30:56;;;;;;;9.57;2.03;;;12.90;99.90;;;;;;5045407;28;20025;-47
2022/10/03 08:33:27;;;;;;;13.30;2.35;;;12.90;99.90;;;;;;5044463;28;20021;-49
2022/10/03 08:36:01;;;;;;;14.82;2.72;;;13.00;99.90;;;;;;5048558;28;20514;-50
2022/10/03 08:39:08;;;;;;;8.75;1.98;;;13.00;99.90;;;;;;5046888;28;20025;-54
2022/10/03 08:42:06;;;;;;;6.27;1.50;;;13.10;99.90;;;;;;5035983;28;20036;-47
2022/10/03 08:44:56;;;;;;;7.85;1.58;;;13.20;99.90;;;;;;5020051;28;20267;-49
2022/10/03 08:47:42;;;;;;;12.73;2.03;;;13.20;99.90;;;;;;5037633;28;20075;-48
2022/10/03 08:50:33;;;;;;;13.45;1.58;;;13.30;99.90;;;;;;5046836;28;20025;-47
2022/10/03 08:53:36;;;;;;;8.45;2.03;;;13.30;99.90;;;;;;5050087;28;20091;-50
2022/10/03 08:56:21;;;;;;;7.85;1.70;;;13.30;99.90;;;;;;5046191;28;20031;-48
2022/10/03 08:58:56;;;;;;;5.63;1.50;;;13.40;99.90;;;;;;5046041;28;20037;-52
2022/10/03 09:01:46;;;;;;;7.15;2.20;;;13.50;99.90;;;;;;5036768;28;20029;-50
2022/10/03 09:04:43;;;;;;;11.25;3.05;;;13.50;99.90;;;;;;5050906;28;20028;-48
2022/10/03 09:07:25;;;;;;;6.35;1.65;;;13.60;99.90;;;;;;5045628;28;20033;-48
2022/10/03 09:10:15;;;;;;;10.88;2.30;;;13.70;99.90;;;;;;5051033;28;20033;-51
2022/10/03 09:13:02;;;;;;;8.70;2.95;;;13.80;99.90;;;;;;5047670;28;20175;-50
2022/10/03 09:16:05;;;;;;;3.30;1.10;;;13.80;99.90;;;;;;5034019;28;20400;-47
2022/10/03 09:18:51;;;;;;;8.25;3.10;;;13.70;99.90;;;;;;5045755;28;20033;-47
2022/10/03 09:21:43;;;;;;;7.57;2.55;;;13.70;99.90;;;;;;5032399;28;20052;-48
2022/10/03 09:24:33;;;;;;;6.75;2.55;;;13.70;99.90;;;;;;5045836;28;20632;-49
2022/10/03 09:27:20;;;;;;;7.22;2.53;;;13.80;99.90;;;;;;5049476;28;20021;-50
2022/10/03 09:30:14;;;;;;;10.85;2.17;;;13.80;99.90;;;;;;5042662;28;20036;-47
2022/10/03 09:32:54;;;;;;;10.05;2.58;;;13.90;99.90;;;;;;5041404;28;20084;-51
2022/10/03 09:35:22;;;;;;;11.85;3.15;;;14.00;99.90;;;;;;5050235;28;20028;-49
2022/10/03 09:38:03;;;;;;;8.13;2.97;;;14.00;99.90;;;;;;5046327;28;20051;-48
2022/10/03 09:40:47;;;;;;;9.23;2.72;;;14.00;99.90;;;;;;5020780;28;20483;-48
2022/10/03 09:43:40;;;;;;;14.55;2.60;;;14.00;99.90;;;;;;5041842;28;20025;-47
2022/10/03 09:46:15;;;;;;;9.05;2.85;;;14.00;99.90;;;;;;5050203;28;20025;-48
2022/10/03 09:49:11;;;;;;;7.45;2.60;;;14.20;99.90;;;;;;5046602;28;20025;-47
2022/10/03 09:52:07;;;;;;;14.27;1.73;;;14.30;99.90;;;;;;5022831;28;20074;-49
2022/10/03 09:55:11;;;;;;;10.48;1.88;;;14.40;99.90;;;;;;5046305;28;20645;-49
2022/10/03 09:58:09;;;;;;;10.93;1.92;;;14.50;99.90;;;;;;5022653;28;20037;-50
2022/10/03 10:01:02;;;;;;;7.30;2.28;;;14.50;99.90;;;;;;5040824;28;20403;-47
2022/10/03 10:03:42;;;;;;;10.68;2.45;;;14.50;99.90;;;;;;5037831;28;20013;-47
2022/10/03 10:06:29;;;;;;;10.15;2.10;;;14.60;99.90;;;;;;5044568;28;20021;-49
2022/10/03 10:09:10;;;;;;;4.57;1.80;;;14.60;99.90;;;;;;5048901;28;20051;-49
2022/10/03 10:12:08;;;;;;;7.82;2.00;;;14.70;99.90;;;;;;5045448;28;20025;-49
2022/10/03 10:14:55;;;;;;;8.20;1.77;;;14.70;99.90;;;;;;5039280;28;20021;-50
2022/10/03 10:17:51;;;;;;;6.68;1.52;;;14.70;99.90;;;;;;5037831;28;20028;-50
2022/10/03 10:20:23;;;;;;;5.22;1.60;;;14.80;99.90;;;;;;5035095;28;20505;-51
2022/10/03 10:23:13;;;;;;;8.75;2.38;;;14.80;99.90;;;;;;5045565;28;20021;-49
2022/10/03 10:26:16;;;;;;;4.72;1.13;;;14.80;99.90;;;;;;5040426;28;20029;-50
2022/10/03 10:29:10;;;;;;;5.80;1.40;;;14.80;99.90;;;;;;5038350;28;20024;-48
2022/10/03 10:32:05;;;;;;;9.00;1.90;;;14.80;99.90;;;;;;5039670;28;20028;-49
2022/10/03 10:34:47;;;;;;;7.05;1.90;;;14.90;99.90;;;;;;5038275;28;20044;-49
2022/10/03 10:37:53;;;;;;;8.93;1.40;;;15.10;99.90;;;;;;5027076;28;20085;-47
2022/10/03 10:40:45;;;;;;;7.18;1.73;;;15.30;99.90;;;;;;5046798;28;20090;-47
2022/10/03 10:43:36;;;;;;;10.23;1.70;;;15.40;99.90;;;;;;5022917;28;20025;-47
2022/10/03 10:46:16;;;;;;;7.90;2.60;;;15.60;99.90;;;;;;5049330;28;20155;-49
2022/10/03 10:49:19;;;;;;;12.60;1.33;;;15.60;99.90;;;;;;5045400;28;20460;-49
2022/10/03 10:51:51;;;;;;;9.60;1.52;;;15.70;99.90;;;;;;5041189;28;20451;-50
2022/10/03 10:54:52;;;;;;;9.07;2.20;;;15.70;99.90;;;;;;5033394;28;20028;-48
2022/10/03 10:57:24;;;;;;;5.03;1.48;;;15.60;99.90;;;;;;5045804;28;20083;-48
2022/10/03 11:00:20;;;;;;;7.15;1.05;;;15.50;99.90;;;;;;5025816;28;20021;-47
2022/10/03 11:03:04;;;;;;;8.32;1.55;;;15.50;99.90;;;;;;5040855;28;20025;-49
2022/10/03 11:06:00;;;;;;;10.50;2.15;;;15.40;99.90;;;;;;5037606;28;20021;-49
2022/10/03 11:09:10;;;;;;;4.43;1.50;;;15.40;99.90;;;;;;5036386;28;20463;-47
2022/10/03 11:12:08;;;;;;;6.53;1.88;;;15.40;99.90;;;;;;5038820;28;20049;-47
2022/10/03 11:14:52;;;;;;;7.95;1.35;;;15.40;99.90;;;;;;4990625;28;20038;-50
2022/10/03 11:17:29;;;;;;;8.85;1.70;;;15.30;99.90;;;;;;5036377;28;20041;-46
2022/10/03 11:20:17;;;;;;;6.97;1.80;;;15.30;99.90;;;;;;5048857;28;20037;-47
2022/10/03 11:23:04;;;;;;;5.20;1.40;;;15.40;99.90;;;;;;5027012;28;20013;-50
2022/10/03 11:25:36;;;;;;;5.28;1.20;;;15.40;99.90;;;;;;5037327;28;20383;-49
2022/10/03 11:28:25;;;;;;;10.10;1.30;;;15.40;99.90;;;;;;5042722;28;20013;-48
2022/10/03 11:31:06;;;;;;;4.40;1.13;;;15.40;99.90;;;;;;5027521;28;20033;-51
2022/10/03 11:34:03;;;;;;;6.95;1.30;;;15.40;99.90;;;;;;5046186;28;20028;-47
2022/10/03 11:36:55;;;;;;;6.90;1.50;;;15.40;99.90;;;;;;5034292;28;20030;-52
2022/10/03 11:39:40;;;;;;;4.97;1.58;;;15.30;99.90;;;;;;5034788;28;20017;-53
2022/10/03 11:42:39;;;;;;;4.68;1.08;;;15.40;99.90;;;;;;5043291;28;20021;-50
2022/10/03 11:45:22;;;;;;;2.15;0.98;;;15.60;99.90;;;;;;5045490;28;20017;-47
2022/10/03 11:48:06;;;;;;;7.47;1.17;;;15.80;99.90;;;;;;5048628;28;20029;-50
2022/10/03 11:50:41;;;;;;;3.78;1.38;;;15.80;99.90;;;;;;5027039;28;20511;-47
2022/10/03 11:53:17;;;;;;;5.00;0.82;;;15.90;99.90;;;;;;5046840;28;20025;-48
2022/10/03 11:55:50;;;;;;;4.88;1.15;;;15.90;99.90;;;;;;5046321;28;20403;-47
2022/10/03 11:58:37;;;;;;;6.43;1.52;;;16.00;99.90;;;;;;5029873;28;20291;-46
2022/10/03 12:01:42;;;;;;;4.43;1.88;;;16.00;99.90;;;;;;5042651;28;20395;-47
2022/10/03 12:04:55;;;;;;;2.08;1.17;;;16.00;99.90;;;;;;5048107;28;20510;-48
2022/10/03 12:10:50;;;;;;;7.90;1.95;;;15.80;99.90;;;;;;5037903;28;20254;-49
2022/10/03 12:13:36;;;;;;;;;;;15.80;99.90;;;;;;5036644;28;20511;-50
2022/10/03 12:16:11;;;;;;;5.05;1.63;;;15.70;99.90;;;;;;5046745;28;19963;-49
2022/10/03 12:18:41;;;;;;;4.15;1.42;;;15.70;99.90;;;;;;5032706;28;20033;-49
2022/10/03 12:21:11;;;;;;;6.40;1.92;;;15.70;99.90;;;;;;5051457;28;20021;-48
2022/10/03 12:24:00;;;;;;;4.70;0.90;;;15.70;99.90;;;;;;5048303;28;20109;-49
2022/10/03 12:26:44;;;;;;;3.90;1.30;;;15.70;99.90;;;;;;5021601;28;20507;-46
2022/10/03 12:29:12;;;;;;;4.13;1.02;;;15.70;99.90;;;;;;5039763;28;20471;-51
2022/10/03 12:32:01;;;;;;;5.15;1.42;;;15.70;99.90;;;;;;5048126;28;20501;-50
2022/10/03 12:34:49;;;;;;;5.65;1.65;;;15.70;99.90;;;;;;5000147;28;20033;-51
2022/10/03 12:37:22;;;;;;;7.65;1.60;;;15.70;99.90;;;;;;5027811;28;20031;-47
2022/10/03 12:40:09;;;;;;;9.35;2.45;;;15.70;99.90;;;;;;5044718;28;20159;-48
2022/10/03 12:42:54;;;;;;;4.18;1.40;;;15.70;99.90;;;;;;5044187;28;20495;-47
2022/10/03 12:45:26;;;;;;;5.25;2.05;;;15.80;99.90;;;;;;5036710;28;20021;-47
2022/10/03 12:48:07;;;;;;;6.20;1.33;;;15.80;99.90;;;;;;5047039;28;20522;-47
2022/10/03 12:50:42;;;;;;;5.35;1.00;;;15.80;99.90;;;;;;5050391;28;20451;-49
2022/10/03 12:53:24;;;;;;;8.60;1.67;;;15.80;99.90;;;;;;5045778;28;20032;-50
2022/10/03 12:55:58;;;;;;;7.72;1.75;;;15.80;99.90;;;;;;5048679;28;20029;-48
2022/10/03 12:58:36;;;;;;;2.55;1.02;;;15.80;99.90;;;;;;5037853;28;20101;-50
2022/10/03 13:01:15;;;;;;;9.18;1.45;;;15.70;99.90;;;;;;5046127;28;20090;-48
2022/10/03 13:03:54;;;;;;;6.57;1.50;;;15.60;99.90;;;;;;5051542;28;20104;-46
2022/10/03 13:06:22;;;;;;;8.57;1.92;;;15.60;99.90;;;;;;5041123;28;20071;-50
2022/10/03 13:08:51;;;;;;;2.90;1.05;;;15.50;99.90;;;;;;5043657;28;20022;-47
2022/10/03 13:11:58;;;;;;;7.25;1.50;;;15.50;99.90;;;;;;5036228;28;20027;-50
2022/10/03 13:14:33;;;;;;;7.32;1.58;;;15.50;99.90;;;;;;5038183;28;20075;-51
2022/10/03 13:17:26;;;;;;;7.70;1.48;;;15.50;99.90;;;;;;5046711;28;20029;-52
2022/10/03 13:20:05;;;;;;;8.70;1.23;;;15.50;99.90;;;;;;5048880;28;20025;-47
2022/10/03 13:22:59;;;;;;;5.25;1.55;;;15.50;99.90;;;;;;5045980;28;20020;-50
2022/10/03 13:25:55;;;;;;;5.28;1.38;;;15.50;99.90;;;;;;5048088;28;20024;-49
2022/10/03 13:28:34;;;;;;;5.57;1.70;;;15.30;99.90;;;;;;5036972;28;20025;-47
2022/10/03 13:31:14;;;;;;;5.05;1.42;;;15.30;99.90;;;;;;5049715;28;20498;-46
2022/10/03 13:33:54;;;;;;;7.07;1.40;;;15.30;99.90;;;;;;5041696;28;20028;-48
2022/10/03 13:36:43;;;;;;;11.90;1.60;;;15.30;99.90;;;;;;5036259;28;20079;-46
2022/10/03 13:39:24;;;;;;;7.32;1.67;;;15.40;99.90;;;;;;5045410;28;20035;-51
2022/10/03 13:42:04;;;;;;;8.32;1.67;;;15.40;99.90;;;;;;5050738;28;20051;-47
2022/10/03 13:44:40;;;;;;;6.53;1.55;;;15.40;99.90;;;;;;5038728;28;20518;-47
2022/10/03 13:47:15;;;;;;;6.10;1.30;;;15.40;99.90;;;;;;5043656;28;20129;-47
2022/10/03 13:49:52;;;;;;;6.38;1.33;;;15.40;99.90;;;;;;5322904;22;20053;-50
2022/10/03 13:52:45;;;;;;;7.13;1.63;;;15.40;99.90;;;;;;5017904;28;20022;-48
2022/10/03 13:55:34;;;;;;;4.63;1.30;;;15.50;99.90;;;;;;5022222;28;20017;-49
2022/10/03 13:58:23;;;;;;;9.32;1.45;;;15.50;99.90;;;;;;5021832;28;20026;-49
2022/10/03 14:01:28;;;;;;;3.40;1.48;;;15.50;99.90;;;;;;5021371;28;20103;-52
2022/10/03 14:04:32;;;;;;;5.05;1.63;;;15.50;99.90;;;;;;5021581;28;20470;-48
2022/10/03 14:07:31;;;;;;;5.32;1.73;;;15.50;99.90;;;;;;5024850;28;20022;-52
2022/10/03 14:10:25;;;;;;;3.88;1.27;;;15.50;99.90;;;;;;5017701;28;20108;-50
2022/10/03 14:13:01;;;;;;;7.72;1.63;;;15.50;99.90;;;;;;5003288;28;20030;-51
2022/10/03 14:15:45;;;;;;;7.93;2.05;;;15.50;99.90;;;;;;5022191;28;20143;-48
2022/10/03 14:18:32;;;;;;;5.07;1.38;;;15.40;99.90;;;;;;5021038;28;20022;-53
2022/10/03 14:21:19;;;;;;;6.78;1.77;;;15.40;99.90;;;;;;5021084;28;20029;-52
2022/10/03 14:24:11;;;;;;;8.40;1.77;;;15.40;99.90;;;;;;5022721;28;20025;-50
2022/10/03 14:26:40;;;;;;;7.20;1.80;;;15.40;99.90;;;;;;5016411;28;20021;-48
2022/10/03 14:29:25;;;;;;;7.03;1.80;;;15.40;99.90;;;;;;5020056;28;20484;-52
2022/10/03 14:32:02;;;;;;;8.15;2.17;;;15.40;99.90;;;;;;5019505;28;20030;-52
2022/10/03 14:34:30;;;;;;;7.10;2.05;;;15.30;99.90;;;;;;5022084;28;20269;-51
2022/10/03 14:37:03;;;;;;;8.05;2.00;;;15.30;99.90;;;;;;5020873;28;20098;-50
2022/10/03 14:39:52;;;;;;;8.07;2.03;;;15.20;99.90;;;;;;5021539;28;20112;-51
2022/10/03 14:42:46;;;;;;;7.38;1.60;;;15.20;99.90;;;;;;5009222;28;20021;-49
2022/10/03 14:45:16;;;;;;;6.40;2.28;;;15.10;99.90;;;;;;5025434;28;20018;-51